Kezdőlap
METAR-TAF:

METAR-TAF

Repülőterek :

Caen, Franciaország

földrajzi szélesség: 49-11N, földrajzi hosszúság: 000-27W, magasság: 78 m

Jelenlegi meteorológiai megfigyelések

A jelentés 31 perccel ezelõtt készült, 16:00 UTC
Déli szél 8 kt
Hőmérséklet 7°C
Páratartalom 81%
Légköri nyomás 1003 hPa
Látótávolság 10 km, vagy több
felhőtlen 1500 m magasságban, és nincs gomolyfelhõ

METAR: LFRK 151600Z AUTO 19008KT CAVOK 07/04 Q1003 TEMPO 20015G25KT SHRA

Idő: 17:31 (16:31 UTC)

Előrejelzés

A jelentés 2 órával és 31 perccel ezelõtt készült, 14:00 UTC
Az előrejelzés 15-én 15 óra UTC és 15-én 24 óra UTC között érvényes
Dél-délnyugati szél 10 kt
Látótávolság 10 km, vagy több
Szórványos felhőzet 3000 lábon
Valószínűség 30% :
15-én 15 óra UTC és 15-én 24 óra UTC között ideiglenes
Dél-délnyugati szél 15 kt széllökések: 25 kt
Látótávolság: 5000 m
záporok

TAF: LFRK 151400Z 1515/1524 20010KT 9999 SCT030 PROB30 TEMPO 1515/1524 20015G25KT 5000 SHRA

Meteorológiai megfigyelések és előrejelzések több, mint 4000 repülőtéren (METAR és TAF jelentéseket).

A térképen piros és sárga pontok jelzik az elérhető meteorológiai állomásokat.

Mozgassa az egeret a pont fölött, hogy megjelenjen az állomás neve.

Azután kattintson az időjárási megfigyelések és előrejelzések megtekintéséhez.

A térkép megváltoztatása: kattintson a fekete keresztel jelölt zöld gombra ráközelítéshez, a vonallal jelölt zöld gombra távolításhoz, vagy a zöld nyilakra a szomszédos térképek eléréséhez.


METAR-TAF: